Time;durP1;ratioP1;P1;durP2;ratioP2;P2;SDS_P1;SDS_P2;PMS_P1;PMS_P2;Temp;Humidity;BMP_temperature;BMP_pressure;BME280_temperature;BME280_humidity;BME280_pressure;Samples;Min_cycle;Max_cycle;Signal;HPM_P1;HPM_P2
2023/07/04 00:00:35;;;;;;;11.30;2.75;;;16.90;99.90;;;;;;5051275;28;20029;-57
2023/07/04 00:03:01;;;;;;;7.30;3.20;;;16.90;99.90;;;;;;5051450;28;20106;-54
2023/07/04 00:05:26;;;;;;;13.45;3.50;;;16.90;99.90;;;;;;5051180;28;20036;-57
2023/07/04 00:07:52;;;;;;;16.42;3.25;;;17.00;99.90;;;;;;5050987;28;20047;-59
2023/07/04 00:10:20;;;;;;;10.82;3.20;;;17.00;99.90;;;;;;5051326;28;20036;-58
2023/07/04 00:12:46;;;;;;;13.35;2.85;;;17.00;99.90;;;;;;5051205;28;20051;-58
2023/07/04 00:15:13;;;;;;;12.35;3.08;;;16.90;99.90;;;;;;5050997;28;20033;-58
2023/07/04 00:17:42;;;;;;;10.77;2.35;;;17.00;99.90;;;;;;5051008;28;20028;-58
2023/07/04 00:20:09;;;;;;;10.27;2.80;;;17.00;99.90;;;;;;5051127;28;20387;-56
2023/07/04 00:22:36;;;;;;;11.10;3.05;;;16.80;99.90;;;;;;5051062;28;20108;-60
2023/07/04 00:25:04;;;;;;;13.60;3.17;;;16.80;99.90;;;;;;5050884;28;20074;-55
2023/07/04 00:27:33;;;;;;;10.15;3.10;;;16.70;99.90;;;;;;5050889;28;20360;-61
2023/07/04 00:29:59;;;;;;;10.32;2.92;;;16.50;99.90;;;;;;5050888;28;20021;-59
2023/07/04 00:32:25;;;;;;;11.55;3.53;;;16.40;99.90;;;;;;5051284;28;20043;-57
2023/07/04 00:34:51;;;;;;;20.15;3.63;;;16.30;99.90;;;;;;5050878;28;20025;-59
2023/07/04 00:37:21;;;;;;;10.50;2.80;;;16.30;99.90;;;;;;5050817;28;20033;-59
2023/07/04 00:39:47;;;;;;;12.57;2.72;;;16.30;99.90;;;;;;5050888;28;20053;-57
2023/07/04 00:42:13;;;;;;;14.77;3.35;;;16.30;99.90;;;;;;5050797;28;20044;-55
2023/07/04 00:44:44;;;;;;;11.13;2.90;;;16.10;99.90;;;;;;5050984;28;20025;-58
2023/07/04 00:47:21;;;;;;;10.75;3.13;;;16.10;99.90;;;;;;5050640;28;20021;-57
2023/07/04 00:49:51;;;;;;;8.32;2.85;;;16.00;99.90;;;;;;5050844;28;20057;-55
2023/07/04 00:52:24;;;;;;;14.52;2.88;;;16.00;99.90;;;;;;5050952;28;20387;-56
2023/07/04 00:54:57;;;;;;;10.77;2.28;;;16.00;99.90;;;;;;5052877;28;20024;-53
2023/07/04 00:57:25;;;;;;;14.32;3.25;;;16.10;99.90;;;;;;5054519;28;20048;-58
2023/07/04 00:59:58;;;;;;;11.85;3.67;;;16.20;99.90;;;;;;5054587;28;20048;-59
2023/07/04 01:02:31;;;;;;;10.07;2.35;;;16.20;99.90;;;;;;5054700;28;20029;-54
2023/07/04 01:04:59;;;;;;;10.10;3.00;;;16.20;99.90;;;;;;5054373;28;20108;-53
2023/07/04 01:07:47;;;;;;;13.80;3.17;;;16.10;99.90;;;;;;5054161;28;20155;-60
2023/07/04 01:10:27;;;;;;;10.77;3.25;;;16.10;99.90;;;;;;5054347;28;20106;-52
2023/07/04 01:12:52;;;;;;;10.65;3.30;;;16.00;99.90;;;;;;5054800;28;20029;-56
2023/07/04 01:15:18;;;;;;;11.73;3.10;;;16.00;99.90;;;;;;5054372;28;20051;-58
2023/07/04 01:17:44;;;;;;;16.90;3.17;;;16.00;99.90;;;;;;5054014;28;20032;-57
2023/07/04 01:20:13;;;;;;;17.45;2.88;;;15.80;99.90;;;;;;5054253;28;20037;-59
2023/07/04 01:22:56;;;;;;;11.93;3.50;;;15.80;99.90;;;;;;5054259;28;20557;-57
2023/07/04 01:25:37;;;;;;;11.25;2.45;;;15.80;99.90;;;;;;5054216;28;20029;-57
2023/07/04 01:28:03;;;;;;;15.15;3.38;;;15.80;99.90;;;;;;5053911;28;20478;-53
2023/07/04 01:30:35;;;;;;;12.95;3.30;;;15.70;99.90;;;;;;5053785;28;20025;-56
2023/07/04 01:33:01;;;;;;;9.48;2.97;;;15.50;99.90;;;;;;5053672;28;20041;-58
2023/07/04 01:35:27;;;;;;;15.40;2.50;;;15.60;99.90;;;;;;5054074;28;20485;-57
2023/07/04 01:37:54;;;;;;;15.32;4.05;;;15.60;99.90;;;;;;5053724;28;20025;-58
2023/07/04 01:40:20;;;;;;;10.18;2.85;;;15.50;99.90;;;;;;5053778;28;20086;-60
2023/07/04 01:42:46;;;;;;;7.68;2.83;;;15.40;99.90;;;;;;5053743;28;20029;-61
2023/07/04 01:45:12;;;;;;;15.68;3.20;;;15.20;99.90;;;;;;5053642;28;20037;-56
2023/07/04 01:47:38;;;;;;;12.48;3.13;;;15.30;99.90;;;;;;5053637;28;20032;-55
2023/07/04 01:50:05;;;;;;;10.45;3.10;;;15.20;99.90;;;;;;5053612;28;20018;-59
2023/07/04 01:52:31;;;;;;;16.73;3.08;;;15.30;99.90;;;;;;5053700;28;20024;-53
2023/07/04 01:54:58;;;;;;;9.93;2.70;;;15.30;99.90;;;;;;5053465;28;20032;-60
2023/07/04 01:57:24;;;;;;;11.02;3.30;;;15.40;99.90;;;;;;5053282;28;20025;-55
2023/07/04 01:59:50;;;;;;;15.85;3.05;;;15.40;99.90;;;;;;5053548;28;20037;-54
2023/07/04 02:02:16;;;;;;;9.05;3.03;;;15.30;99.90;;;;;;5053515;28;20105;-54
2023/07/04 02:04:41;;;;;;;13.90;3.13;;;15.30;99.90;;;;;;5053232;28;20029;-52
2023/07/04 02:07:08;;;;;;;13.90;3.05;;;15.30;99.90;;;;;;5052035;28;20025;-55
2023/07/04 02:09:34;;;;;;;12.10;3.15;;;15.30;99.90;;;;;;5053302;28;20113;-55
2023/07/04 02:12:00;;;;;;;16.48;3.50;;;15.20;99.90;;;;;;5053147;28;20032;-58
2023/07/04 02:14:25;;;;;;;19.98;3.53;;;15.20;99.90;;;;;;5053155;28;20441;-56
2023/07/04 02:16:52;;;;;;;12.95;3.88;;;15.10;99.90;;;;;;5053108;28;20482;-60
2023/07/04 02:19:17;;;;;;;17.90;3.45;;;15.10;99.90;;;;;;5053064;28;20063;-54
2023/07/04 02:21:44;;;;;;;16.77;2.67;;;15.10;99.90;;;;;;5053133;28;20021;-54
2023/07/04 02:24:10;;;;;;;7.30;2.90;;;15.20;99.90;;;;;;5052877;28;20033;-56
2023/07/04 02:26:36;;;;;;;14.40;2.70;;;15.20;99.90;;;;;;5052841;28;20094;-56
2023/07/04 02:29:02;;;;;;;21.15;3.58;;;15.20;99.90;;;;;;5052989;28;20017;-52
2023/07/04 02:31:27;;;;;;;9.25;2.75;;;15.20;99.90;;;;;;5053060;28;20079;-57
2023/07/04 02:33:53;;;;;;;13.15;3.00;;;15.10;99.90;;;;;;5052787;28;20017;-55
2023/07/04 02:36:19;;;;;;;21.25;3.15;;;15.00;99.90;;;;;;5052847;28;20057;-55
2023/07/04 02:38:45;;;;;;;14.05;2.92;;;15.00;99.90;;;;;;5052641;28;20048;-57
2023/07/04 02:41:11;;;;;;;10.55;3.10;;;15.10;99.90;;;;;;5052447;28;20487;-60
2023/07/04 02:43:37;;;;;;;13.65;3.65;;;15.20;99.90;;;;;;5052617;28;20056;-51
2023/07/04 02:46:05;;;;;;;15.68;2.97;;;15.10;99.90;;;;;;5052422;28;20063;-53
2023/07/04 02:48:34;;;;;;;17.90;3.42;;;15.20;99.90;;;;;;5052463;28;20021;-55
2023/07/04 02:51:00;;;;;;;11.98;2.78;;;15.10;99.90;;;;;;5052457;28;20032;-58
2023/07/04 02:53:26;;;;;;;12.07;3.35;;;15.10;99.90;;;;;;5052358;28;20036;-55
2023/07/04 02:55:53;;;;;;;18.80;3.88;;;15.10;99.90;;;;;;5052482;28;20033;-60
2023/07/04 02:58:19;;;;;;;10.55;2.67;;;15.10;99.90;;;;;;5052347;28;20499;-57
2023/07/04 03:00:48;;;;;;;13.00;3.05;;;15.10;99.90;;;;;;5052389;28;20518;-57
2023/07/04 03:03:13;;;;;;;14.93;2.95;;;15.10;99.90;;;;;;5052272;28;20024;-57
2023/07/04 03:05:39;;;;;;;10.95;3.28;;;15.00;99.90;;;;;;5052296;28;20491;-58
2023/07/04 03:08:06;;;;;;;13.85;3.65;;;15.00;99.90;;;;;;5051898;28;20027;-60
2023/07/04 03:10:32;;;;;;;10.35;2.53;;;14.90;99.90;;;;;;5052239;28;20375;-60
2023/07/04 03:12:57;;;;;;;14.00;3.08;;;14.90;99.90;;;;;;5052164;28;20017;-58
2023/07/04 03:15:23;;;;;;;17.45;3.42;;;14.90;99.90;;;;;;5052026;28;20021;-59
2023/07/04 03:17:49;;;;;;;20.50;3.55;;;14.90;99.90;;;;;;5051603;28;20395;-58
2023/07/04 03:20:15;;;;;;;11.75;2.70;;;14.90;99.90;;;;;;5051958;28;20100;-57
2023/07/04 03:22:41;;;;;;;19.10;3.40;;;14.90;99.90;;;;;;5051975;28;20553;-57
2023/07/04 03:25:08;;;;;;;20.60;3.38;;;14.90;99.90;;;;;;5051619;28;20040;-58
2023/07/04 03:27:36;;;;;;;20.60;3.83;;;14.90;99.90;;;;;;5051732;28;20104;-56
2023/07/04 03:30:03;;;;;;;20.80;3.20;;;14.90;99.90;;;;;;5051653;28;20499;-55
2023/07/04 03:32:29;;;;;;;16.35;3.08;;;14.90;99.90;;;;;;5051735;28;20029;-54
2023/07/04 03:35:01;;;;;;;13.77;3.00;;;14.90;99.90;;;;;;5051596;28;20078;-53
2023/07/04 03:37:34;;;;;;;16.35;3.15;;;14.90;99.90;;;;;;5051438;28;20025;-53
2023/07/04 03:40:00;;;;;;;16.35;3.10;;;14.90;99.90;;;;;;5051413;28;20025;-54
2023/07/04 03:42:26;;;;;;;21.17;3.60;;;14.90;99.90;;;;;;5051813;28;20112;-52
2023/07/04 03:44:52;;;;;;;13.32;3.72;;;14.80;99.90;;;;;;5051403;28;20025;-52
2023/07/04 03:47:18;;;;;;;12.18;3.10;;;14.80;99.90;;;;;;5051417;28;20021;-60
2023/07/04 03:49:44;;;;;;;13.00;2.80;;;14.80;99.90;;;;;;5051468;28;20395;-55
2023/07/04 03:52:11;;;;;;;15.88;3.70;;;14.80;99.90;;;;;;5051398;28;20024;-57
2023/07/04 03:54:36;;;;;;;19.50;3.40;;;14.80;99.90;;;;;;5051401;28;20025;-55
2023/07/04 03:57:02;;;;;;;20.55;3.47;;;14.80;99.90;;;;;;5051285;28;20376;-60
2023/07/04 03:59:27;;;;;;;10.95;3.17;;;14.80;99.90;;;;;;5051376;28;20377;-55
2023/07/04 04:01:53;;;;;;;17.15;3.72;;;14.80;99.90;;;;;;5051362;28;20029;-56
2023/07/04 04:04:20;;;;;;;17.13;3.50;;;14.80;99.90;;;;;;5051149;28;20090;-54
2023/07/04 04:06:48;;;;;;;17.02;2.92;;;14.80;99.90;;;;;;5051181;28;20036;-57
2023/07/04 04:09:15;;;;;;;17.20;4.20;;;14.80;99.90;;;;;;5050987;28;20056;-60
2023/07/04 04:11:41;;;;;;;14.40;3.45;;;;;;;;;;5051271;28;20029;-60
2023/07/04 04:14:06;;;;;;;15.10;3.33;;;14.80;99.90;;;;;;5051097;28;20074;-58
2023/07/04 04:16:32;;;;;;;16.90;4.05;;;14.80;99.90;;;;;;5051118;28;20040;-58
2023/07/04 04:18:58;;;;;;;19.75;3.13;;;14.80;99.90;;;;;;5050826;28;20036;-55
2023/07/04 04:21:24;;;;;;;18.65;3.17;;;14.80;99.90;;;;;;5051143;28;20556;-52
2023/07/04 04:23:52;;;;;;;15.63;3.05;;;14.90;99.90;;;;;;5050994;28;20103;-52
2023/07/04 04:26:19;;;;;;;20.40;3.38;;;;;;;;;;5050914;28;20491;-57
2023/07/04 04:28:44;;;;;;;19.25;2.92;;;14.90;99.90;;;;;;5051323;28;20506;-59
2023/07/04 04:31:11;;;;;;;13.93;3.08;;;14.90;99.90;;;;;;5055119;28;20021;-60
2023/07/04 04:33:36;;;;;;;21.50;3.72;;;14.90;99.90;;;;;;5055014;28;20017;-59
2023/07/04 04:36:02;;;;;;;9.52;3.08;;;14.90;99.90;;;;;;5054991;28;20037;-56
2023/07/04 04:38:28;;;;;;;19.45;3.75;;;14.90;99.90;;;;;;5054879;28;20024;-59
2023/07/04 04:40:55;;;;;;;16.40;3.65;;;15.00;99.90;;;;;;5054822;28;20040;-59
2023/07/04 04:43:21;;;;;;;19.48;3.28;;;15.00;99.90;;;;;;5054963;28;20021;-58
2023/07/04 04:45:47;;;;;;;17.33;3.40;;;15.00;99.90;;;;;;5054828;28;20060;-57
2023/07/04 04:48:18;;;;;;;10.48;2.67;;;15.00;99.90;;;;;;5054544;28;20499;-58
2023/07/04 04:50:46;;;;;;;18.75;3.20;;;15.00;99.90;;;;;;5054839;28;20024;-57
2023/07/04 04:53:14;;;;;;;22.35;3.38;;;15.00;99.90;;;;;;5054695;28;20025;-57
2023/07/04 04:55:40;;;;;;;23.38;4.05;;;15.00;99.90;;;;;;5055113;28;20070;-56
2023/07/04 04:58:05;;;;;;;10.35;3.35;;;15.10;99.90;;;;;;5054403;28;20417;-57
2023/07/04 05:00:31;;;;;;;22.63;3.63;;;15.10;99.90;;;;;;5054591;28;20078;-57
2023/07/04 05:02:57;;;;;;;14.75;3.67;;;15.10;99.90;;;;;;5054490;28;20031;-56
2023/07/04 05:05:22;;;;;;;19.90;2.65;;;15.10;99.90;;;;;;5054324;28;20108;-53
2023/07/04 05:07:49;;;;;;;22.48;3.33;;;15.10;99.90;;;;;;5054296;28;20081;-57
2023/07/04 05:10:15;;;;;;;24.48;4.13;;;15.20;99.90;;;;;;5054401;28;20124;-52
2023/07/04 05:12:41;;;;;;;18.23;3.30;;;15.20;99.90;;;;;;5054412;28;20391;-58
2023/07/04 05:15:08;;;;;;;15.40;3.50;;;15.30;99.90;;;;;;5054184;28;20040;-55
2023/07/04 05:17:34;;;;;;;27.55;4.53;;;15.30;99.90;;;;;;5054081;28;20035;-60
2023/07/04 05:20:00;;;;;;;23.10;4.10;;;15.30;99.90;;;;;;5054178;28;20032;-58
2023/07/04 05:22:26;;;;;;;17.40;3.42;;;15.40;99.90;;;;;;5054443;28;20024;-58
2023/07/04 05:24:51;;;;;;;10.90;3.15;;;15.40;99.90;;;;;;5054129;28;20060;-60
2023/07/04 05:27:17;;;;;;;24.20;3.40;;;15.50;99.90;;;;;;5054085;28;20061;-59
2023/07/04 05:29:45;;;;;;;14.95;3.28;;;15.50;99.90;;;;;;5054320;28;20049;-58
2023/07/04 05:32:11;;;;;;;17.50;3.45;;;15.60;99.90;;;;;;5054327;28;20033;-55
2023/07/04 05:34:36;;;;;;;16.35;3.03;;;15.60;99.90;;;;;;5054148;28;20078;-57
2023/07/04 05:37:03;;;;;;;18.65;3.45;;;15.70;99.90;;;;;;5054034;28;20068;-53
2023/07/04 05:39:29;;;;;;;9.10;2.60;;;15.70;99.90;;;;;;5054004;28;20463;-58
2023/07/04 05:41:54;;;;;;;17.00;3.30;;;15.80;99.90;;;;;;5053806;28;20068;-58
2023/07/04 05:44:21;;;;;;;20.67;3.83;;;15.80;99.90;;;;;;5053682;28;20112;-60
2023/07/04 05:46:46;;;;;;;24.08;4.20;;;15.90;99.90;;;;;;5053884;28;20017;-59
2023/07/04 05:49:12;;;;;;;14.73;3.08;;;15.90;99.90;;;;;;5054543;28;20170;-59
2023/07/04 05:51:37;;;;;;;18.27;3.15;;;15.90;99.90;;;;;;5053806;28;20029;-57
2023/07/04 05:54:03;;;;;;;30.15;4.20;;;16.00;99.90;;;;;;5053637;28;20028;-57
2023/07/04 05:56:30;;;;;;;21.02;4.10;;;16.00;99.90;;;;;;5053615;28;20055;-56
2023/07/04 05:58:57;;;;;;;27.17;3.53;;;16.10;99.90;;;;;;5053375;28;20037;-57
2023/07/04 06:01:58;;;;;;;42.08;5.03;;;16.10;99.90;;;;;;5053553;28;20083;-60
2023/07/04 06:04:24;;;;;;;28.90;5.22;;;16.20;99.90;;;;;;5053093;28;20033;-57
2023/07/04 06:06:51;;;;;;;21.48;3.72;;;16.20;99.90;;;;;;5053397;28;20060;-60
2023/07/04 06:09:18;;;;;;;27.02;3.70;;;16.20;99.90;;;;;;5053087;28;20052;-60
2023/07/04 06:11:45;;;;;;;14.27;3.72;;;16.20;99.90;;;;;;5053389;28;20021;-59
2023/07/04 06:14:15;;;;;;;26.42;3.08;;;16.20;99.90;;;;;;5053209;28;20014;-57
2023/07/04 06:16:41;;;;;;;24.83;3.72;;;16.20;99.90;;;;;;5053244;28;20021;-58
2023/07/04 06:19:07;;;;;;;16.58;3.13;;;16.30;99.90;;;;;;5053032;28;20025;-58
2023/07/04 06:21:32;;;;;;;24.80;3.75;;;16.30;99.90;;;;;;5053175;28;20104;-59
2023/07/04 06:23:58;;;;;;;16.17;3.63;;;16.40;99.90;;;;;;5052923;28;20438;-58
2023/07/04 06:26:27;;;;;;;20.48;3.53;;;16.40;99.90;;;;;;5053234;28;20037;-55
2023/07/04 06:28:53;;;;;;;16.70;3.45;;;16.40;99.90;;;;;;5052841;28;20552;-61
2023/07/04 06:31:19;;;;;;;23.23;4.80;;;16.40;99.90;;;;;;5052962;28;20377;-58
2023/07/04 06:33:45;;;;;;;14.13;3.33;;;16.50;99.90;;;;;;5052899;28;20017;-60
2023/07/04 06:36:12;;;;;;;9.55;3.38;;;16.50;99.90;;;;;;5052806;28;20487;-58
2023/07/04 06:38:38;;;;;;;21.48;4.22;;;16.60;99.90;;;;;;5052687;28;20021;-54
2023/07/04 06:41:07;;;;;;;26.70;3.88;;;16.70;99.90;;;;;;5052639;28;20068;-56
2023/07/04 06:43:33;;;;;;;16.60;2.88;;;16.70;99.90;;;;;;5051484;28;20082;-60
2023/07/04 06:45:59;;;;;;;15.90;3.25;;;16.80;99.90;;;;;;5052672;28;20083;-56
2023/07/04 06:48:26;;;;;;;23.80;4.00;;;16.90;99.90;;;;;;5052696;28;20548;-57
2023/07/04 06:51:01;;;;;;;19.33;3.75;;;16.80;99.90;;;;;;5052666;28;20376;-54
2023/07/04 06:53:27;;;;;;;18.27;4.20;;;16.80;99.90;;;;;;5052062;28;20024;-55
2023/07/04 06:55:53;;;;;;;21.30;3.92;;;16.80;99.90;;;;;;5052515;28;20036;-54
2023/07/04 06:58:19;;;;;;;15.02;3.47;;;16.80;99.90;;;;;;5052359;28;20037;-55
2023/07/04 07:00:45;;;;;;;17.55;3.83;;;16.80;99.90;;;;;;5052510;28;20066;-58
2023/07/04 07:03:10;;;;;;;16.05;2.95;;;16.90;99.90;;;;;;5052348;28;20025;-57
2023/07/04 07:05:40;;;;;;;14.45;3.78;;;17.00;99.90;;;;;;5052042;28;20124;-58
2023/07/04 07:08:05;;;;;;;22.50;3.70;;;17.10;99.90;;;;;;5052043;28;20095;-52
2023/07/04 07:10:31;;;;;;;17.27;3.17;;;17.10;99.90;;;;;;5052257;28;20055;-58
2023/07/04 07:12:58;;;;;;;18.02;3.92;;;17.20;99.90;;;;;;5052065;28;20028;-59
2023/07/04 07:15:25;;;;;;;23.10;3.75;;;17.20;99.90;;;;;;5052144;28;20077;-60
2023/07/04 07:17:50;;;;;;;17.38;3.00;;;17.30;99.90;;;;;;5051891;28;20395;-57
2023/07/04 07:20:16;;;;;;;18.13;4.63;;;17.30;99.90;;;;;;5051880;28;20057;-58
2023/07/04 07:22:41;;;;;;;29.30;3.92;;;17.40;99.90;;;;;;5052047;28;20556;-57
2023/07/04 07:25:07;;;;;;;14.50;4.13;;;17.50;99.90;;;;;;5051764;28;20441;-54
2023/07/04 07:27:32;;;;;;;25.42;4.75;;;17.40;99.90;;;;;;5051932;28;20383;-53
2023/07/04 07:29:58;;;;;;;42.60;4.20;;;17.50;99.90;;;;;;5051814;28;20104;-55
2023/07/04 07:32:23;;;;;;;29.92;3.90;;;17.50;99.90;;;;;;5052037;28;20055;-57
2023/07/04 07:34:49;;;;;;;19.30;3.72;;;17.50;99.90;;;;;;5051656;28;20135;-57
2023/07/04 07:37:15;;;;;;;16.42;3.53;;;17.50;99.90;;;;;;5051481;28;20028;-58
2023/07/04 07:39:42;;;;;;;15.02;3.30;;;17.50;99.90;;;;;;5051759;28;20028;-59
2023/07/04 07:42:07;;;;;;;15.25;3.53;;;17.60;99.90;;;;;;5051853;28;20033;-59
2023/07/04 07:44:33;;;;;;;17.70;2.70;;;17.60;99.90;;;;;;5051547;28;20452;-57
2023/07/04 07:46:59;;;;;;;19.67;3.70;;;17.70;99.90;;;;;;5051740;28;20078;-58
2023/07/04 07:49:25;;;;;;;21.70;3.33;;;17.60;99.90;;;;;;5051295;28;20033;-59
2023/07/04 07:51:51;;;;;;;22.48;3.40;;;17.70;99.90;;;;;;5051598;28;20051;-58
2023/07/04 07:54:16;;;;;;;17.70;3.20;;;17.70;99.90;;;;;;5051510;28;20065;-58
2023/07/04 07:56:45;;;;;;;21.15;3.85;;;17.80;99.90;;;;;;5051361;28;20365;-58
2023/07/04 07:59:11;;;;;;;22.98;3.53;;;17.90;99.90;;;;;;5051237;28;20028;-58
2023/07/04 08:01:38;;;;;;;16.17;3.08;;;18.10;99.90;;;;;;5051517;28;20025;-57
2023/07/04 08:04:05;;;;;;;19.70;3.67;;;18.10;99.90;;;;;;5050198;28;20403;-55
2023/07/04 08:06:37;;;;;;;10.18;2.90;;;18.20;99.90;;;;;;5051235;28;20029;-58
2023/07/04 08:09:08;;;;;;;9.35;2.50;;;18.40;99.90;;;;;;5051175;28;20021;-55
2023/07/04 08:11:34;;;;;;;15.32;3.33;;;18.50;99.90;;;;;;5051398;28;20098;-55
2023/07/04 08:14:00;;;;;;;13.85;2.88;;;18.30;99.90;;;;;;5051138;28;20045;-58
2023/07/04 08:16:50;;;;;;;17.45;3.33;;;18.30;99.90;;;;;;5051077;28;20052;-53
2023/07/04 08:19:17;;;;;;;15.02;2.63;;;18.30;99.90;;;;;;5050866;28;20060;-51
2023/07/04 08:21:44;;;;;;;14.60;2.50;;;18.40;99.90;;;;;;5051179;28;20029;-57
2023/07/04 08:24:10;;;;;;;14.02;2.65;;;18.60;99.90;;;;;;5049742;28;20048;-58
2023/07/04 08:26:38;;;;;;;14.07;2.92;;;18.60;99.90;;;;;;5050950;28;20021;-58
2023/07/04 08:29:05;;;;;;;15.60;2.67;;;18.50;99.90;;;;;;5050811;28;20043;-57
2023/07/04 08:31:31;;;;;;;24.30;2.72;;;18.50;99.90;;;;;;5051270;28;20032;-58
2023/07/04 08:33:57;;;;;;;28.08;3.60;;;18.50;99.90;;;;;;5050953;28;20017;-56
2023/07/04 08:36:22;;;;;;;16.98;2.63;;;18.60;99.90;;;;;;5051013;28;20032;-54
2023/07/04 08:38:49;;;;;;;61.03;6.55;;;18.60;99.90;;;;;;5050896;28;20025;-59
2023/07/04 08:41:44;;;;;;;23.38;2.58;;;18.90;99.90;;;;;;5050949;28;20037;-57
2023/07/04 08:44:12;;;;;;;36.40;4.07;;;19.10;99.90;;;;;;5050848;28;20028;-52
2023/07/04 08:46:41;;;;;;;14.02;2.95;;;19.00;99.90;;;;;;5050811;28;20052;-58
2023/07/04 08:49:38;;;;;;;13.35;2.40;;;19.00;99.90;;;;;;5050612;28;20017;-56
2023/07/04 08:52:11;;;;;;;10.18;2.75;;;19.10;99.90;;;;;;5042296;28;20071;-58
2023/07/04 08:54:37;;;;;;;13.07;2.90;;;19.10;99.90;;;;;;5050825;28;20017;-60
2023/07/04 08:57:17;;;;;;;20.92;3.28;;;19.10;99.90;;;;;;5050722;28;20180;-59
2023/07/04 08:59:44;;;;;;;27.45;3.53;;;19.30;99.90;;;;;;5050888;28;20024;-58
2023/07/04 09:02:12;;;;;;;10.20;2.80;;;19.30;99.90;;;;;;5050773;28;20021;-60
2023/07/04 09:04:55;;;;;;;11.55;2.47;;;19.40;99.90;;;;;;5050863;28;20387;-58
2023/07/04 09:07:29;;;;;;;19.27;2.80;;;19.40;99.90;;;;;;5050556;28;20025;-60
2023/07/04 09:10:02;;;;;;;17.03;3.40;;;19.50;99.90;;;;;;5050645;28;20028;-58
2023/07/04 09:12:34;;;;;;;15.70;2.90;;;19.70;99.90;;;;;;5050789;28;20430;-57
2023/07/04 09:15:30;;;;;;;11.95;2.95;;;19.60;99.90;;;;;;5051085;28;20263;-57
2023/07/04 09:18:22;;;;;;;12.52;2.30;;;19.70;99.90;;;;;;5054214;28;20040;-57
2023/07/04 09:21:03;;;;;;;8.35;2.75;;;19.50;99.90;;;;;;5054391;28;20020;-58
2023/07/04 09:23:29;;;;;;;23.65;4.78;;;19.70;99.90;;;;;;5054174;28;20100;-55
2023/07/04 09:25:57;;;;;;;37.38;4.80;;;19.80;99.90;;;;;;5053988;28;20033;-58
2023/07/04 09:28:24;;;;;;;12.13;2.78;;;19.80;99.90;;;;;;5054063;28;20029;-58
2023/07/04 09:30:52;;;;;;;12.73;2.50;;;19.90;99.90;;;;;;5054144;28;20051;-56
2023/07/04 09:33:21;;;;;;;7.72;2.95;;;20.20;99.90;;;;;;5054091;28;20376;-56
2023/07/04 09:35:47;;;;;;;10.05;3.00;;;20.30;99.90;;;;;;5053983;28;20442;-55
2023/07/04 09:38:13;;;;;;;11.50;2.72;;;20.30;99.90;;;;;;5053806;28;20091;-58
2023/07/04 09:40:45;;;;;;;16.02;2.83;;;20.40;99.90;;;;;;5053924;28;20060;-58
2023/07/04 09:43:11;;;;;;;21.52;3.60;;;20.60;99.90;;;;;;5053906;28;20116;-60
2023/07/04 09:45:38;;;;;;;12.98;3.33;;;20.80;99.90;;;;;;5053648;28;20616;-58
2023/07/04 09:48:05;;;;;;;12.35;3.03;;;21.00;99.90;;;;;;5053507;28;20025;-57
2023/07/04 09:50:37;;;;;;;20.80;3.33;;;21.10;99.90;;;;;;5053664;28;20048;-59
2023/07/04 09:53:11;;;;;;;30.50;3.38;;;21.30;99.90;;;;;;5053673;28;20052;-59
2023/07/04 09:55:38;;;;;;;15.13;2.90;;;21.10;99.90;;;;;;5053619;28;20086;-58
2023/07/04 09:58:17;;;;;;;16.10;3.75;;;21.30;99.90;;;;;;5053343;28;20073;-58
2023/07/04 10:00:45;;;;;;;13.55;3.85;;;20.90;99.90;;;;;;5053395;28;20040;-56
2023/07/04 10:03:11;;;;;;;18.20;4.18;;;20.50;99.90;;;;;;5053801;28;20029;-60
2023/07/04 10:05:37;;;;;;;12.80;3.17;;;20.70;99.90;;;;;;5053344;28;20494;-56
2023/07/04 10:08:11;;;;;;;14.98;3.30;;;20.80;99.90;;;;;;5053119;28;20415;-59
2023/07/04 10:10:50;;;;;;;18.52;4.15;;;21.00;99.90;;;;;;5053461;28;20033;-58
2023/07/04 10:13:38;;;;;;;17.30;3.88;;;21.20;99.90;;;;;;5053114;28;20047;-56
2023/07/04 10:16:23;;;;;;;12.85;3.55;;;21.20;99.90;;;;;;5052994;28;20113;-58
2023/07/04 10:18:49;;;;;;;11.07;3.38;;;21.40;99.90;;;;;;5053160;28;20029;-53
2023/07/04 10:21:15;;;;;;;14.98;4.40;;;21.60;99.90;;;;;;5053156;28;20033;-54
2023/07/04 10:23:41;;;;;;;10.18;3.78;;;21.30;99.90;;;;;;5053330;28;20490;-57
2023/07/04 10:26:08;;;;;;;9.85;3.45;;;21.50;99.90;;;;;;5052422;28;20021;-54
2023/07/04 10:28:34;;;;;;;15.60;3.88;;;21.70;99.90;;;;;;5052543;28;20110;-56
2023/07/04 10:31:08;;;;;;;14.57;4.03;;;21.90;99.90;;;;;;5052998;28;20179;-59
2023/07/04 10:34:04;;;;;;;15.82;4.63;;;22.10;99.90;;;;;;5053054;28;20014;-59
2023/07/04 10:36:36;;;;;;;15.13;5.22;;;21.90;99.90;;;;;;5052955;28;20029;-56
2023/07/04 10:39:07;;;;;;;17.88;4.72;;;21.90;99.90;;;;;;5052689;28;20021;-56
2023/07/04 10:41:47;;;;;;;21.20;4.60;;;22.00;99.90;;;;;;5052783;28;20044;-55
2023/07/04 10:44:24;;;;;;;39.75;5.70;;;22.20;99.90;;;;;;5052700;28;20543;-54
2023/07/04 10:47:08;;;;;;;12.57;4.05;;;;;;;;;;5052668;28;20041;-53
2023/07/04 10:49:41;;;;;;;12.27;3.97;;;22.50;99.90;;;;;;5052866;28;20406;-57
2023/07/04 10:52:14;;;;;;;12.77;4.85;;;22.70;99.90;;;;;;5052684;28;20044;-56
2023/07/04 10:54:40;;;;;;;17.52;4.65;;;22.50;99.90;;;;;;5052577;28;20025;-58
2023/07/04 10:57:21;;;;;;;15.02;4.18;;;22.20;99.90;;;;;;5052172;28;20055;-57
2023/07/04 10:59:50;;;;;;;12.45;4.18;;;22.10;99.90;;;;;;5052388;28;20067;-60
2023/07/04 11:02:22;;;;;;;15.55;4.22;;;22.40;99.90;;;;;;5051137;28;20120;-52
2023/07/04 11:04:49;;;;;;;14.48;4.15;;;22.60;99.90;;;;;;5052332;28;20036;-56
2023/07/04 11:07:26;;;;;;;14.43;5.07;;;22.80;99.90;;;;;;5051970;28;20035;-60
2023/07/04 11:09:55;;;;;;;11.93;4.22;;;23.00;99.90;;;;;;5052356;28;20394;-57
2023/07/04 11:12:26;;;;;;;15.00;4.60;;;23.10;99.90;;;;;;5052342;28;20055;-58
2023/07/04 11:15:18;;;;;;;12.88;4.05;;;23.10;99.90;;;;;;5052221;28;20052;-58
2023/07/04 11:17:45;;;;;;;13.20;4.72;;;23.40;99.90;;;;;;5051701;28;20037;-54
2023/07/04 11:20:48;;;;;;;24.05;4.47;;;23.30;99.90;;;;;;5052011;28;20103;-60
2023/07/04 11:23:19;;;;;;;15.77;4.60;;;23.20;99.90;;;;;;5051711;28;20044;-56
2023/07/04 11:25:44;;;;;;;15.23;4.38;;;23.30;99.90;;;;;;5051965;28;20021;-57
2023/07/04 11:28:25;;;;;;;14.63;4.93;;;23.80;98.10;;;;;;5051545;28;20391;-55
2023/07/04 11:30:52;;;;;;;12.02;4.22;;;23.90;98.00;;;;;;5051921;28;20021;-57
2023/07/04 11:33:52;;;;;;;13.85;4.93;;;23.70;97.30;;;;;;5051755;28;20035;-50
2023/07/04 11:36:33;;;;;;;14.05;4.93;;;23.40;97.50;;;;;;5044595;28;20033;-59
2023/07/04 11:39:19;;;;;;;11.32;4.60;;;23.00;98.30;;;;;;5051431;28;20107;-58
2023/07/04 11:41:45;;;;;;;11.80;4.65;;;23.10;98.50;;;;;;5051659;28;20496;-57
2023/07/04 11:44:28;;;;;;;10.00;4.43;;;23.30;97.60;;;;;;5051605;28;20104;-58
2023/07/04 11:47:01;;;;;;;10.02;4.72;;;23.00;97.80;;;;;;5051510;28;20025;-60
2023/07/04 11:49:28;;;;;;;10.98;4.85;;;23.30;97.40;;;;;;5051482;28;20541;-54
2023/07/04 11:52:04;;;;;;;12.75;4.90;;;23.50;97.60;;;;;;5051551;28;20547;-51
2023/07/04 11:54:30;;;;;;;8.30;4.53;;;23.40;97.90;;;;;;5051556;28;20387;-56
2023/07/04 11:56:55;;;;;;;11.10;4.88;;;23.60;97.80;;;;;;5051328;28;20024;-56
2023/07/04 11:59:25;;;;;;;12.75;5.18;;;23.80;97.40;;;;;;5051220;28;20017;-59
2023/07/04 12:01:51;;;;;;;10.05;4.88;;;24.10;98.20;;;;;;5051756;28;20021;-57
2023/07/04 12:04:33;;;;;;;16.20;5.68;;;24.30;97.00;;;;;;5051477;28;20028;-57
2023/07/04 12:07:19;;;;;;;11.90;5.15;;;24.00;95.60;;;;;;5051426;28;20025;-56
2023/07/04 12:10:03;;;;;;;22.92;5.88;;;24.50;95.10;;;;;;5051548;28;20025;-58
2023/07/04 12:12:32;;;;;;;11.88;5.30;;;24.50;94.30;;;;;;5051294;28;20048;-58
2023/07/04 12:15:08;;;;;;;15.98;6.13;;;24.10;94.10;;;;;;5051187;28;20045;-61
2023/07/04 12:17:38;;;;;;;9.93;4.70;;;23.90;94.40;;;;;;5051192;28;20104;-56
2023/07/04 12:20:11;;;;;;;15.10;5.78;;;24.10;94.00;;;;;;5051204;28;20106;-55
2023/07/04 12:22:44;;;;;;;15.68;5.82;;;24.50;94.50;;;;;;5051455;28;20039;-58
2023/07/04 12:25:15;;;;;;;13.02;5.60;;;24.70;93.30;;;;;;5051017;28;20025;-58
2023/07/04 12:27:42;;;;;;;11.65;5.88;;;24.20;92.50;;;;;;5050892;28;20040;-58
2023/07/04 12:30:10;;;;;;;12.90;5.57;;;24.20;92.70;;;;;;5051021;28;20025;-61
2023/07/04 12:32:39;;;;;;;16.70;6.00;;;24.40;92.40;;;;;;5051010;28;20020;-57
2023/07/04 12:35:06;;;;;;;14.35;6.28;;;24.30;92.50;;;;;;5050665;28;20108;-57
2023/07/04 12:37:39;;;;;;;15.07;5.82;;;24.30;92.60;;;;;;5050811;28;20488;-60
2023/07/04 12:40:12;;;;;;;12.55;6.30;;;24.30;92.10;;;;;;5051103;28;20025;-61
2023/07/04 12:42:38;;;;;;;12.88;6.50;;;24.50;90.90;;;;;;5051119;28;20036;-59
2023/07/04 12:45:15;;;;;;;12.32;5.40;;;24.50;92.20;;;;;;5050994;28;20418;-59
2023/07/04 12:47:44;;;;;;;10.10;5.75;;;24.60;91.70;;;;;;5050844;28;20025;-58